createdAt,value
2017-01-19T00:00:24.150Z,2.14
2017-01-19T00:00:50.239Z,2.15
2017-01-19T00:01:16.352Z,2.13
2017-01-19T00:01:42.450Z,2.17
2017-01-19T00:02:08.539Z,2.15
2017-01-19T00:02:34.642Z,2.1
2017-01-19T00:03:00.741Z,2.14
2017-01-19T00:03:26.824Z,2.14
2017-01-19T00:03:52.933Z,2.13
2017-01-19T00:04:19.027Z,2.17
2017-01-19T00:04:45.130Z,2.22
2017-01-19T00:05:11.227Z,2.22
2017-01-19T00:05:37.312Z,2.22
2017-01-19T00:06:03.422Z,2.11
2017-01-19T00:06:29.524Z,2.1
2017-01-19T00:06:55.611Z,1.97
2017-01-19T00:07:21.717Z,1.97
2017-01-19T00:07:47.819Z,2.14
2017-01-19T00:08:13.905Z,2.1
2017-01-19T00:08:40.007Z,2.1
2017-01-19T00:09:06.119Z,2.13
2017-01-19T00:10:02.052Z,2.15
2017-01-19T00:10:28.154Z,2.15
2017-01-19T00:10:54.246Z,2.1
2017-01-19T00:11:20.344Z,2.13
2017-01-19T00:11:46.450Z,2.07
2017-01-19T00:12:12.544Z,2
2017-01-19T00:12:38.629Z,1.94
2017-01-19T00:13:04.741Z,1.92
2017-01-19T00:13:30.843Z,1.85
2017-01-19T00:13:56.936Z,1.84
2017-01-19T00:14:23.041Z,1.84
2017-01-19T00:14:49.139Z,1.91
2017-01-19T00:15:15.228Z,1.81
2017-01-19T00:15:41.328Z,1.8
2017-01-19T00:16:07.424Z,1.81
2017-01-19T00:16:33.532Z,1.68
2017-01-19T00:16:59.626Z,1.62
2017-01-19T00:17:25.717Z,1.68
2017-01-19T00:17:51.824Z,1.66
2017-01-19T00:18:17.962Z,1.63
2017-01-19T00:18:44.049Z,1.7
2017-01-19T00:19:10.154Z,1.67
2017-01-19T00:19:36.260Z,1.71
2017-01-19T00:20:02.350Z,1.7
2017-01-19T00:20:28.447Z,1.62
2017-01-19T00:20:54.554Z,1.68
2017-01-19T00:21:20.642Z,1.68
2017-01-19T00:21:46.742Z,1.67
2017-01-19T00:22:12.842Z,1.59
2017-01-19T00:22:38.940Z,1.59
2017-01-19T00:23:05.026Z,1.58
2017-01-19T00:23:31.137Z,1.55
2017-01-19T00:23:57.231Z,1.58
2017-01-19T00:24:23.322Z,1.58
2017-01-19T00:24:49.425Z,1.59
2017-01-19T00:25:15.529Z,1.53
2017-01-19T00:25:41.626Z,1.62
2017-01-19T00:26:07.737Z,1.7
2017-01-19T00:26:33.841Z,1.67
2017-01-19T00:26:59.936Z,1.67
2017-01-19T00:27:26.034Z,1.67
2017-01-19T00:27:52.125Z,1.7
2017-01-19T00:28:18.230Z,1.62
2017-01-19T00:28:44.333Z,1.68
2017-01-19T00:29:10.421Z,1.66
2017-01-19T00:29:36.524Z,1.76
2017-01-19T00:30:02.634Z,1.77
2017-01-19T00:30:28.720Z,1.7
2017-01-19T00:30:54.818Z,1.76
2017-01-19T00:31:20.922Z,1.67
2017-01-19T00:31:47.010Z,1.77
2017-01-19T00:32:13.105Z,1.78
2017-01-19T00:32:39.199Z,1.81
2017-01-19T00:33:05.303Z,1.78
2017-01-19T00:33:31.407Z,1.8
2017-01-19T00:33:57.496Z,1.81
2017-01-19T00:34:23.594Z,1.88
2017-01-19T00:34:49.706Z,1.95
2017-01-19T00:35:15.794Z,1.97
2017-01-19T00:35:41.888Z,2.04
2017-01-19T00:36:07.994Z,2
2017-01-19T00:36:34.090Z,1.85
2017-01-19T00:37:00.182Z,1.88
2017-01-19T00:37:26.290Z,1.92
2017-01-19T00:37:52.389Z,1.94
2017-01-19T00:38:18.485Z,1.85
2017-01-19T00:38:44.576Z,1.84
2017-01-19T00:39:10.677Z,1.87
2017-01-19T00:39:36.781Z,1.85
2017-01-19T00:40:02.875Z,1.87
2017-01-19T00:40:28.962Z,1.89
2017-01-19T00:40:55.106Z,1.8
2017-01-19T00:41:21.196Z,1.87
2017-01-19T00:41:47.285Z,1.84
2017-01-19T00:42:13.390Z,1.84
2017-01-19T00:42:39.493Z,1.84
2017-01-19T00:43:05.580Z,1.81
2017-01-19T00:43:31.685Z,1.81
2017-01-19T00:43:57.779Z,1.77
2017-01-19T00:44:23.891Z,1.8
2017-01-19T00:44:49.988Z,1.76
2017-01-19T00:45:16.080Z,1.77
2017-01-19T00:45:42.188Z,1.7
2017-01-19T00:46:08.292Z,1.81
2017-01-19T00:46:34.384Z,1.71
2017-01-19T00:47:00.489Z,1.77
2017-01-19T00:47:26.620Z,1.8
2017-01-19T00:47:52.713Z,1.67
2017-01-19T00:48:18.819Z,1.63
2017-01-19T00:48:44.919Z,1.66
2017-01-19T00:49:11.007Z,1.63
2017-01-19T00:49:37.108Z,1.66
2017-01-19T00:50:03.196Z,1.68
2017-01-19T00:50:29.295Z,1.66
2017-01-19T00:50:55.399Z,1.63
2017-01-19T00:51:21.491Z,1.58
2017-01-19T00:51:47.595Z,1.58
2017-01-19T00:52:13.696Z,1.53
2017-01-19T00:52:39.790Z,1.49
2017-01-19T00:53:05.890Z,1.53
2017-01-19T00:53:31.996Z,1.48
2017-01-19T00:53:58.083Z,1.59
2017-01-19T00:54:24.168Z,1.6
2017-01-19T00:54:50.272Z,1.62
2017-01-19T00:55:16.378Z,1.56
2017-01-19T00:55:42.481Z,1.52
2017-01-19T00:56:08.571Z,1.56
2017-01-19T00:56:34.662Z,1.55
2017-01-19T00:57:00.772Z,1.59
2017-01-19T00:57:26.864Z,1.52
2017-01-19T00:57:52.956Z,1.45
2017-01-19T00:58:19.064Z,1.52
2017-01-19T00:58:45.153Z,1.59
2017-01-19T00:59:11.245Z,1.59
2017-01-19T00:59:37.354Z,1.48
2017-01-19T01:00:03.457Z,1.59
2017-01-19T01:00:29.552Z,1.55
2017-01-19T01:00:55.638Z,1.56
2017-01-19T01:01:21.735Z,1.59
2017-01-19T01:01:47.868Z,1.55
2017-01-19T01:02:13.969Z,1.56
2017-01-19T01:02:40.055Z,1.59
2017-01-19T01:03:06.164Z,1.66
2017-01-19T01:03:32.263Z,1.67
2017-01-19T01:03:58.352Z,1.77
2017-01-19T01:04:24.458Z,1.68
2017-01-19T01:04:50.566Z,1.63
2017-01-19T01:05:16.649Z,1.71
2017-01-19T01:05:42.745Z,1.67
2017-01-19T01:06:08.858Z,1.62
2017-01-19T01:06:34.942Z,1.59
2017-01-19T01:07:01.037Z,1.62
2017-01-19T01:07:27.143Z,1.56
2017-01-19T01:07:53.238Z,1.59
2017-01-19T01:08:19.322Z,1.58
2017-01-19T01:08:45.429Z,1.68
2017-01-19T01:09:11.528Z,1.59
2017-01-19T01:09:37.619Z,1.56
2017-01-19T01:10:03.724Z,1.59
2017-01-19T01:10:29.830Z,1.53
2017-01-19T01:10:55.916Z,1.58
2017-01-19T01:11:22.018Z,1.59
2017-01-19T01:11:48.116Z,1.56
2017-01-19T01:12:14.225Z,1.56
2017-01-19T01:12:40.322Z,1.6
2017-01-19T01:13:06.409Z,1.56
2017-01-19T01:13:32.518Z,1.59
2017-01-19T01:13:58.619Z,1.58
2017-01-19T01:14:24.713Z,1.56
2017-01-19T01:14:50.811Z,1.56
2017-01-19T01:15:16.945Z,1.58
2017-01-19T01:15:43.034Z,1.59
2017-01-19T01:16:09.136Z,1.6
2017-01-19T01:16:35.244Z,1.58
2017-01-19T01:17:01.328Z,1.5
2017-01-19T01:17:27.433Z,1.55
2017-01-19T01:17:53.521Z,1.58
2017-01-19T01:18:19.620Z,1.48
2017-01-19T01:18:45.727Z,1.55
2017-01-19T01:19:11.815Z,1.56
2017-01-19T01:19:37.908Z,1.5
2017-01-19T01:20:04.011Z,1.48
2017-01-19T01:20:30.102Z,1.49
2017-01-19T01:20:56.205Z,1.45
2017-01-19T01:21:22.308Z,1.49
2017-01-19T01:21:48.404Z,1.44
2017-01-19T01:22:14.488Z,1.38
2017-01-19T01:22:40.596Z,1.42
2017-01-19T01:23:06.694Z,1.35
2017-01-19T01:23:32.800Z,1.3
2017-01-19T01:23:58.892Z,1.37
2017-01-19T01:24:24.985Z,1.28
2017-01-19T01:24:51.088Z,1.3
2017-01-19T01:25:17.183Z,1.35
2017-01-19T01:25:43.277Z,1.34
2017-01-19T01:26:09.380Z,1.31
2017-01-19T01:26:35.475Z,1.32
2017-01-19T01:27:01.566Z,1.26
2017-01-19T01:27:27.675Z,1.22
2017-01-19T01:27:53.776Z,1.17
2017-01-19T01:28:19.878Z,1.17
2017-01-19T01:28:45.966Z,1.14
2017-01-19T01:29:12.050Z,1.23
2017-01-19T01:29:38.164Z,1.23
2017-01-19T01:30:04.260Z,1.24
2017-01-19T01:30:30.351Z,1.16
2017-01-19T01:30:56.457Z,1.19
2017-01-19T01:31:22.562Z,1.14
2017-01-19T01:31:48.652Z,1.12
2017-01-19T01:32:14.757Z,1.12
2017-01-19T01:32:40.866Z,1.16
2017-01-19T01:33:06.949Z,1.08
2017-01-19T01:33:33.046Z,1.08
2017-01-19T01:33:59.134Z,1.12
2017-01-19T01:34:25.243Z,1.1
2017-01-19T01:34:51.345Z,1.13
2017-01-19T01:35:17.585Z,1.06
2017-01-19T01:35:43.687Z,1.1
2017-01-19T01:36:09.791Z,1.14
2017-01-19T01:36:35.878Z,1.24
2017-01-19T01:37:01.977Z,1.13
2017-01-19T01:37:28.083Z,1.1
2017-01-19T01:37:54.173Z,1.08
2017-01-19T01:38:20.263Z,1.12
2017-01-19T01:38:46.367Z,0.91
2017-01-19T01:39:12.467Z,1.05
2017-01-19T01:39:38.574Z,1.1
2017-01-19T01:40:04.660Z,1.1
2017-01-19T01:40:30.753Z,1.1
2017-01-19T01:40:56.863Z,1.05
2017-01-19T01:41:22.953Z,1.02
2017-01-19T01:41:49.055Z,1.02
2017-01-19T01:42:15.157Z,1.05
2017-01-19T01:42:41.256Z,1.05
2017-01-19T01:43:07.343Z,0.96
2017-01-19T01:43:33.456Z,0.92
2017-01-19T01:43:59.551Z,0.96
2017-01-19T01:44:25.644Z,0.98
2017-01-19T01:44:51.751Z,0.87
2017-01-19T01:45:17.842Z,0.91
2017-01-19T01:45:43.951Z,0.91
2017-01-19T01:46:10.042Z,0.98
2017-01-19T01:46:36.134Z,0.91
2017-01-19T01:47:02.238Z,0.98
2017-01-19T01:47:28.332Z,0.95
2017-01-19T01:47:54.421Z,0.96
2017-01-19T01:48:20.525Z,0.98
2017-01-19T01:48:46.626Z,0.95
2017-01-19T01:49:12.711Z,1.05
2017-01-19T01:49:38.815Z,1.06
2017-01-19T01:50:04.920Z,1.05
2017-01-19T01:50:31.006Z,1.13
2017-01-19T01:50:57.106Z,1.13
2017-01-19T01:51:23.215Z,1.13
2017-01-19T01:51:49.304Z,1.16
2017-01-19T01:52:15.402Z,1.24
2017-01-19T01:52:41.504Z,1.16
2017-01-19T01:53:07.597Z,1.12
2017-01-19T01:53:33.691Z,1.17
2017-01-19T01:53:59.804Z,1.17
2017-01-19T01:54:25.895Z,1.23
2017-01-19T01:54:51.983Z,1.17
2017-01-19T01:55:18.086Z,1.31
2017-01-19T01:55:44.188Z,1.14
2017-01-19T01:56:10.291Z,1.08
2017-01-19T01:56:36.379Z,1.13
2017-01-19T01:57:02.468Z,1.14
2017-01-19T01:57:28.575Z,1.1
2017-01-19T01:57:54.675Z,1.08
2017-01-19T01:58:20.770Z,1.28
2017-01-19T01:58:46.871Z,1.2
2017-01-19T01:59:12.971Z,1.22
2017-01-19T01:59:39.064Z,1.24
2017-01-19T02:00:05.168Z,1.31
2017-01-19T02:00:31.269Z,1.26
2017-01-19T02:00:57.359Z,1.22
2017-01-19T02:01:23.460Z,1.26
2017-01-19T02:01:49.553Z,1.2
2017-01-19T02:02:15.661Z,1.19
2017-01-19T02:02:41.765Z,1.24
2017-01-19T02:03:07.849Z,1.12
2017-01-19T02:03:33.954Z,1.14
2017-01-19T02:04:00.054Z,1.13
2017-01-19T02:04:26.146Z,0.99
2017-01-19T02:04:52.246Z,1.01
2017-01-19T02:05:18.345Z,1.02
2017-01-19T02:05:44.435Z,1.02
2017-01-19T02:06:10.532Z,0.91
2017-01-19T02:06:36.632Z,0.98
2017-01-19T02:07:02.730Z,0.99
2017-01-19T02:07:28.842Z,0.87
2017-01-19T02:07:54.924Z,0.95
2017-01-19T02:08:21.022Z,0.91
2017-01-19T02:08:47.131Z,0.91
2017-01-19T02:09:13.219Z,0.95
2017-01-19T02:09:39.318Z,0.99
2017-01-19T02:10:05.423Z,0.94
2017-01-19T02:10:31.518Z,0.88
2017-01-19T02:10:57.614Z,0.96
2017-01-19T02:11:23.719Z,0.96
2017-01-19T02:11:49.816Z,0.95
2017-01-19T02:12:15.911Z,0.88
2017-01-19T02:12:42.017Z,0.92
2017-01-19T02:13:08.113Z,0.88
2017-01-19T02:13:34.214Z,0.87
2017-01-19T02:14:00.312Z,0.94
2017-01-19T02:14:26.395Z,0.92
2017-01-19T02:14:52.504Z,0.92
2017-01-19T02:15:18.600Z,0.88
2017-01-19T02:15:44.692Z,0.92
2017-01-19T02:16:10.794Z,0.95
2017-01-19T02:16:36.893Z,1.05
2017-01-19T02:17:02.978Z,1.1
2017-01-19T02:17:29.087Z,1.14
2017-01-19T02:17:55.198Z,1.14
2017-01-19T02:18:21.282Z,1.13
2017-01-19T02:18:47.385Z,1.14
2017-01-19T02:19:13.478Z,1.23
2017-01-19T02:19:39.583Z,1.22
2017-01-19T02:20:05.681Z,1.24
2017-01-19T02:20:31.771Z,1.23
2017-01-19T02:20:57.869Z,1.31
2017-01-19T02:21:23.975Z,1.28
2017-01-19T02:21:50.064Z,1.38
2017-01-19T02:22:16.189Z,1.41
2017-01-19T02:22:42.296Z,1.49
2017-01-19T02:23:08.382Z,1.48
2017-01-19T02:23:34.478Z,1.55
2017-01-19T02:24:00.574Z,1.5
2017-01-19T02:24:26.674Z,1.55
2017-01-19T02:24:52.776Z,1.5
2017-01-19T02:25:18.861Z,1.42
2017-01-19T02:25:44.962Z,1.5
2017-01-19T02:26:11.067Z,1.45
2017-01-19T02:26:37.158Z,1.45
2017-01-19T02:27:03.257Z,1.42
2017-01-19T02:27:29.362Z,1.44
2017-01-19T02:27:55.457Z,1.44
2017-01-19T02:28:21.543Z,1.42
2017-01-19T02:28:47.656Z,1.49
2017-01-19T02:29:13.753Z,1.45
2017-01-19T02:29:39.852Z,1.4
2017-01-19T02:30:05.942Z,1.35
2017-01-19T02:30:32.044Z,1.3
2017-01-19T02:30:58.150Z,1.3
2017-01-19T02:31:24.243Z,1.45
2017-01-19T02:31:50.331Z,1.38
2017-01-19T02:32:16.444Z,1.45
2017-01-19T02:32:42.538Z,1.48
2017-01-19T02:33:08.631Z,1.49
2017-01-19T02:33:34.734Z,1.5
2017-01-19T02:34:00.839Z,1.45
2017-01-19T02:34:26.923Z,1.45
2017-01-19T02:34:53.023Z,1.45
2017-01-19T02:35:19.129Z,1.49
2017-01-19T02:35:45.213Z,1.6
2017-01-19T02:36:11.311Z,1.48
2017-01-19T02:36:37.415Z,1.53
2017-01-19T02:37:03.506Z,1.5
2017-01-19T02:37:29.600Z,1.48
2017-01-19T02:37:55.703Z,1.48
2017-01-19T02:38:21.801Z,1.49
2017-01-19T02:38:47.891Z,1.55
2017-01-19T02:39:13.997Z,1.5
2017-01-19T02:39:40.093Z,1.45
2017-01-19T02:40:06.179Z,1.53
2017-01-19T02:40:32.291Z,1.5
2017-01-19T02:40:58.383Z,1.58
2017-01-19T02:41:24.488Z,1.52
2017-01-19T02:41:50.575Z,1.49
2017-01-19T02:42:16.663Z,1.58
2017-01-19T02:42:42.779Z,1.59
2017-01-19T02:43:08.873Z,1.59
2017-01-19T02:43:34.963Z,1.59
2017-01-19T02:44:01.068Z,1.59
2017-01-19T02:44:27.167Z,1.56
2017-01-19T02:44:53.253Z,1.59
2017-01-19T02:45:19.358Z,1.58
2017-01-19T02:45:45.468Z,1.59
2017-01-19T02:46:11.555Z,1.58
2017-01-19T02:46:37.653Z,1.59
2017-01-19T02:47:03.743Z,1.67
2017-01-19T02:47:29.852Z,1.62
2017-01-19T02:47:55.956Z,1.7
2017-01-19T02:48:22.041Z,1.67
2017-01-19T02:48:48.142Z,1.68
2017-01-19T02:49:14.247Z,1.63
2017-01-19T02:49:40.340Z,1.76
2017-01-19T02:50:06.439Z,1.74
2017-01-19T02:50:32.544Z,1.7
2017-01-19T02:50:58.632Z,1.76
2017-01-19T02:51:24.726Z,1.77
2017-01-19T02:51:50.822Z,1.76
2017-01-19T02:52:16.929Z,1.8
2017-01-19T02:52:43.032Z,1.76
2017-01-19T02:53:09.118Z,1.8
2017-01-19T02:53:35.219Z,1.76
2017-01-19T02:54:01.323Z,1.8
2017-01-19T02:54:27.411Z,1.78
2017-01-19T02:54:53.513Z,1.81
2017-01-19T02:55:19.614Z,1.77
2017-01-19T02:55:45.706Z,1.67
2017-01-19T02:56:11.792Z,1.71
2017-01-19T02:56:37.903Z,1.63
2017-01-19T02:57:04.004Z,1.5
2017-01-19T02:57:30.111Z,1.58
2017-01-19T02:57:56.199Z,1.59
2017-01-19T02:58:22.292Z,1.6
2017-01-19T02:58:48.398Z,1.6
2017-01-19T02:59:14.496Z,1.56
2017-01-19T02:59:40.585Z,1.59
2017-01-19T03:00:06.694Z,1.58
2017-01-19T03:00:32.789Z,1.56
2017-01-19T03:00:58.877Z,1.67
2017-01-19T03:01:24.985Z,1.67
2017-01-19T03:01:51.087Z,1.67
2017-01-19T03:02:17.169Z,1.76
2017-01-19T03:02:43.270Z,1.66
2017-01-19T03:03:09.358Z,1.6
2017-01-19T03:03:35.471Z,1.66
2017-01-19T03:04:01.567Z,1.7
2017-01-19T03:04:27.660Z,1.73
2017-01-19T03:04:53.763Z,1.76
2017-01-19T03:05:19.888Z,1.68
2017-01-19T03:05:45.975Z,1.73
2017-01-19T03:06:12.079Z,1.74
2017-01-19T03:06:38.188Z,1.78
2017-01-19T03:07:04.269Z,1.81
2017-01-19T03:07:30.370Z,1.81
2017-01-19T03:07:56.478Z,1.78
2017-01-19T03:08:22.561Z,1.78
2017-01-19T03:08:48.665Z,1.78
2017-01-19T03:09:14.752Z,1.76
2017-01-19T03:09:40.855Z,1.8
2017-01-19T03:10:06.959Z,1.74
2017-01-19T03:10:33.049Z,1.71
2017-01-19T03:10:59.152Z,1.68
2017-01-19T03:11:25.252Z,1.68
2017-01-19T03:11:51.339Z,1.68
2017-01-19T03:12:17.435Z,1.74
2017-01-19T03:12:43.539Z,1.77
2017-01-19T03:13:09.630Z,1.78
2017-01-19T03:13:35.722Z,1.77
2017-01-19T03:14:01.830Z,1.68
2017-01-19T03:14:27.924Z,1.74
2017-01-19T03:14:54.036Z,1.74
2017-01-19T03:15:20.122Z,1.71
2017-01-19T03:15:46.227Z,1.74
2017-01-19T03:16:12.478Z,1.74
2017-01-19T03:16:38.570Z,1.74
2017-01-19T03:17:04.663Z,1.71
2017-01-19T03:17:30.776Z,1.67
2017-01-19T03:17:56.871Z,1.55
2017-01-19T03:18:22.957Z,1.44
2017-01-19T03:18:49.062Z,1.55
2017-01-19T03:19:15.160Z,1.5
2017-01-19T03:19:41.269Z,1.52
2017-01-19T03:20:07.378Z,1.45
2017-01-19T03:20:33.485Z,1.42
2017-01-19T03:20:59.570Z,1.52
2017-01-19T03:21:25.667Z,1.55
2017-01-19T03:21:51.766Z,1.53
2017-01-19T03:22:17.864Z,1.41
2017-01-19T03:22:43.959Z,1.41
2017-01-19T03:23:10.071Z,1.35
2017-01-19T03:23:36.165Z,1.2
2017-01-19T03:24:02.260Z,1.23
2017-01-19T03:24:28.363Z,1.19
2017-01-19T03:24:54.457Z,1.14
2017-01-19T03:25:20.564Z,1.13
2017-01-19T03:25:46.652Z,1.1
2017-01-19T03:26:12.746Z,1.1
2017-01-19T03:26:38.850Z,1.05
2017-01-19T03:27:04.943Z,1.13
2017-01-19T03:27:31.039Z,1.05
2017-01-19T03:27:57.143Z,1.14
2017-01-19T03:28:23.236Z,1.19
2017-01-19T03:28:49.331Z,1.26
2017-01-19T03:29:15.435Z,1.3
2017-01-19T03:29:41.528Z,1.34
2017-01-19T03:30:07.620Z,1.37
2017-01-19T03:30:33.721Z,1.42
2017-01-19T03:30:59.806Z,1.38
2017-01-19T03:31:25.920Z,1.34
2017-01-19T03:31:52.015Z,1.41
2017-01-19T03:32:18.105Z,1.37
2017-01-19T03:32:44.211Z,1.41
2017-01-19T03:33:10.309Z,1.31
2017-01-19T03:33:36.400Z,1.5
2017-01-19T03:34:02.506Z,1.34
2017-01-19T03:34:28.620Z,1.34
2017-01-19T03:34:54.709Z,1.37
2017-01-19T03:35:20.813Z,1.34
2017-01-19T03:35:46.918Z,1.34
2017-01-19T03:36:13.007Z,1.4
2017-01-19T03:36:39.119Z,1.4
2017-01-19T03:37:05.203Z,1.45
2017-01-19T03:37:31.304Z,1.48
2017-01-19T03:37:57.409Z,1.55
2017-01-19T03:38:23.498Z,1.49
2017-01-19T03:38:49.599Z,1.48
2017-01-19T03:39:15.700Z,1.45
2017-01-19T03:39:41.787Z,1.42
2017-01-19T03:40:08.080Z,1.44
2017-01-19T03:40:34.170Z,1.49
2017-01-19T03:41:00.269Z,1.44
2017-01-19T03:41:26.369Z,1.31
2017-01-19T03:41:52.463Z,1.34
2017-01-19T03:42:18.563Z,1.3
2017-01-19T03:42:44.647Z,1.31
2017-01-19T03:43:10.757Z,1.38
2017-01-19T03:43:36.853Z,1.42
2017-01-19T03:44:02.946Z,1.44
2017-01-19T03:44:29.051Z,1.34
2017-01-19T03:44:55.154Z,1.3
2017-01-19T03:45:21.241Z,1.28
2017-01-19T03:45:47.337Z,1.26
2017-01-19T03:46:13.446Z,1.23
2017-01-19T03:46:39.534Z,1.22
2017-01-19T03:47:05.634Z,1.23
2017-01-19T03:47:31.723Z,1.22
2017-01-19T03:47:57.824Z,1.32
2017-01-19T03:48:23.935Z,1.22
2017-01-19T03:48:50.018Z,1.14
2017-01-19T03:49:16.120Z,1.16
2017-01-19T03:49:42.222Z,1.14
2017-01-19T03:50:08.313Z,1.17
2017-01-19T03:50:34.409Z,1.14
2017-01-19T03:51:00.515Z,1.14
2017-01-19T03:51:26.611Z,1.12
2017-01-19T03:51:52.702Z,1.04
2017-01-19T03:52:18.812Z,1.12
2017-01-19T03:52:44.908Z,1.17
2017-01-19T03:53:11.010Z,1.19
2017-01-19T03:53:37.100Z,1.24
2017-01-19T03:54:03.195Z,1.24
2017-01-19T03:54:29.298Z,1.22
2017-01-19T03:54:55.394Z,1.16
2017-01-19T03:55:21.488Z,1.12
2017-01-19T03:55:47.596Z,1.06
2017-01-19T03:56:13.690Z,1.17
2017-01-19T03:56:39.779Z,1.12
2017-01-19T03:57:05.883Z,1.12
2017-01-19T03:57:31.978Z,1.13
2017-01-19T03:57:58.067Z,1.08
2017-01-19T03:58:24.172Z,1.17
2017-01-19T03:58:50.258Z,1.2
2017-01-19T03:59:16.374Z,1.14
2017-01-19T03:59:42.467Z,1.26
2017-01-19T04:00:08.560Z,1.13
2017-01-19T04:00:34.661Z,1.04
2017-01-19T04:01:00.759Z,1.16
2017-01-19T04:01:26.847Z,1.01
2017-01-19T04:01:52.952Z,1.22
2017-01-19T04:02:19.060Z,1.23
2017-01-19T04:02:45.144Z,1.14
2017-01-19T04:03:11.238Z,1.22
2017-01-19T04:03:37.348Z,1.3
2017-01-19T04:04:03.435Z,1.32
2017-01-19T04:04:29.526Z,1.28
2017-01-19T04:04:55.639Z,1.24
2017-01-19T04:05:21.733Z,1.26
2017-01-19T04:05:47.825Z,1.16
2017-01-19T04:06:13.932Z,1.08
2017-01-19T04:06:40.024Z,1.14
2017-01-19T04:07:06.116Z,1.19
2017-01-19T04:07:32.224Z,1.24
2017-01-19T04:07:58.327Z,1.28
2017-01-19T04:08:24.408Z,1.19
2017-01-19T04:08:50.514Z,1.19
2017-01-19T04:09:16.621Z,1.19
2017-01-19T04:09:42.719Z,1.13
2017-01-19T04:10:08.818Z,1.05
2017-01-19T04:10:34.903Z,1.02
2017-01-19T04:11:01.008Z,1.04
2017-01-19T04:11:27.103Z,1.06
2017-01-19T04:11:53.193Z,1.02
2017-01-19T04:12:19.297Z,0.99
2017-01-19T04:12:45.403Z,1.02
2017-01-19T04:13:11.491Z,1.08
2017-01-19T04:13:37.592Z,1.01
2017-01-19T04:14:03.700Z,1.16
2017-01-19T04:14:29.788Z,1.1
2017-01-19T04:14:55.880Z,1.04
2017-01-19T04:15:21.971Z,1.05
2017-01-19T04:15:48.079Z,1.04
2017-01-19T04:16:14.186Z,1.01
2017-01-19T04:16:40.272Z,1.12
2017-01-19T04:17:06.368Z,1.1
2017-01-19T04:17:32.475Z,1.08
2017-01-19T04:17:58.562Z,1.08
2017-01-19T04:18:24.659Z,1.12
2017-01-19T04:18:50.766Z,1.08
2017-01-19T04:19:16.859Z,1.1
2017-01-19T04:19:42.949Z,1.14
2017-01-19T04:20:09.063Z,1.23
2017-01-19T04:20:35.187Z,1.16
2017-01-19T04:21:01.293Z,1.19
2017-01-19T04:21:27.378Z,1.12
2017-01-19T04:21:53.475Z,1.1
2017-01-19T04:22:19.580Z,1.16
2017-01-19T04:22:45.680Z,1.19
2017-01-19T04:23:11.770Z,1.2
2017-01-19T04:23:37.878Z,1.2
2017-01-19T04:24:03.975Z,1.23
2017-01-19T04:24:30.059Z,1.31
2017-01-19T04:24:56.162Z,1.32
2017-01-19T04:25:22.290Z,1.34
2017-01-19T04:25:48.378Z,1.45
2017-01-19T04:26:14.475Z,1.37
2017-01-19T04:26:40.568Z,1.44
2017-01-19T04:27:06.683Z,1.41
2017-01-19T04:27:32.765Z,1.45
2017-01-19T04:27:58.856Z,1.34
2017-01-19T04:28:24.958Z,1.32
2017-01-19T04:28:51.064Z,1.41
2017-01-19T04:29:17.175Z,1.28
2017-01-19T04:29:43.279Z,1.32
2017-01-19T04:30:09.376Z,1.31
2017-01-19T04:30:35.469Z,1.35
2017-01-19T04:31:01.564Z,1.35
2017-01-19T04:31:27.675Z,1.4
2017-01-19T04:31:53.762Z,1.41
2017-01-19T04:32:19.863Z,1.38
2017-01-19T04:32:45.955Z,1.41
2017-01-19T04:33:12.058Z,1.42
2017-01-19T04:33:38.164Z,1.38
2017-01-19T04:34:04.246Z,1.32
2017-01-19T04:34:30.349Z,1.3
2017-01-19T04:34:56.454Z,1.35
2017-01-19T04:35:22.544Z,1.35
2017-01-19T04:35:48.640Z,1.3
2017-01-19T04:36:14.744Z,1.31
2017-01-19T04:36:40.837Z,1.26
2017-01-19T04:37:06.922Z,1.31
2017-01-19T04:37:33.026Z,1.17
2017-01-19T04:37:59.125Z,1.12
2017-01-19T04:38:25.230Z,1.12
2017-01-19T04:38:51.321Z,1.12
2017-01-19T04:39:17.414Z,1.16
2017-01-19T04:39:43.518Z,1.12
2017-01-19T04:40:09.619Z,1.06
2017-01-19T04:40:35.709Z,1.06
2017-01-19T04:41:01.811Z,1.2
2017-01-19T04:41:27.910Z,1.14
2017-01-19T04:41:53.996Z,1.05
2017-01-19T04:42:20.105Z,0.99
2017-01-19T04:42:46.209Z,0.92
2017-01-19T04:43:12.309Z,0.87
2017-01-19T04:43:38.406Z,0.87
2017-01-19T04:44:04.495Z,0.92
2017-01-19T04:44:30.601Z,0.87
2017-01-19T04:44:56.692Z,0.78
2017-01-19T04:45:22.781Z,0.74
2017-01-19T04:45:48.890Z,0.87
2017-01-19T04:46:14.989Z,0.8
2017-01-19T04:46:41.083Z,0.8
2017-01-19T04:47:07.179Z,0.77
2017-01-19T04:47:33.287Z,0.8
2017-01-19T04:47:59.367Z,0.76
2017-01-19T04:48:25.468Z,0.74
2017-01-19T04:48:51.572Z,0.78
2017-01-19T04:49:17.659Z,0.69
2017-01-19T04:49:43.753Z,0.63
2017-01-19T04:50:09.855Z,0.6
2017-01-19T04:50:35.952Z,0.76
2017-01-19T04:51:02.036Z,0.77
2017-01-19T04:51:28.148Z,0.68
2017-01-19T04:51:54.239Z,0.63
2017-01-19T04:52:20.333Z,0.73
2017-01-19T04:52:46.438Z,0.6
2017-01-19T04:53:12.542Z,0.74
2017-01-19T04:53:38.625Z,0.68
2017-01-19T04:54:04.726Z,0.68
2017-01-19T04:54:30.815Z,0.62
2017-01-19T04:54:56.921Z,0.69
2017-01-19T04:55:23.019Z,0.73
2017-01-19T04:55:49.105Z,0.65
2017-01-19T04:56:15.206Z,0.69
2017-01-19T04:56:41.303Z,0.73
2017-01-19T04:57:07.392Z,0.65
2017-01-19T04:57:33.499Z,0.74
2017-01-19T04:57:59.600Z,0.69
2017-01-19T04:58:25.687Z,0.74
2017-01-19T04:58:51.786Z,0.73
2017-01-19T04:59:17.896Z,0.73
2017-01-19T04:59:43.981Z,0.81
2017-01-19T05:00:10.082Z,0.84
2017-01-19T05:00:36.171Z,0.83
2017-01-19T05:01:02.273Z,0.83
2017-01-19T05:01:28.379Z,0.77
2017-01-19T05:01:54.465Z,0.77
2017-01-19T05:02:20.563Z,0.69
2017-01-19T05:02:46.667Z,0.7
2017-01-19T05:03:12.756Z,0.66
2017-01-19T05:03:38.857Z,0.76
2017-01-19T05:04:04.963Z,0.74
2017-01-19T05:04:31.049Z,0.76
2017-01-19T05:04:57.133Z,0.8
2017-01-19T05:05:23.240Z,0.81
2017-01-19T05:05:49.339Z,0.84
2017-01-19T05:06:15.442Z,0.84
2017-01-19T05:06:41.534Z,0.87
2017-01-19T05:07:07.625Z,0.94
2017-01-19T05:07:33.728Z,0.96
2017-01-19T05:07:59.820Z,0.95
2017-01-19T05:08:25.913Z,0.99
2017-01-19T05:08:52.017Z,0.91
2017-01-19T05:09:18.117Z,0.94
2017-01-19T05:09:44.202Z,0.94
2017-01-19T05:10:10.309Z,0.92
2017-01-19T05:10:36.414Z,0.94
2017-01-19T05:11:02.503Z,0.94
2017-01-19T05:11:28.603Z,0.92
2017-01-19T05:11:54.712Z,0.91
2017-01-19T05:12:20.801Z,0.96
2017-01-19T05:12:46.896Z,0.86
2017-01-19T05:13:13.005Z,0.92
2017-01-19T05:13:39.091Z,0.86
2017-01-19T05:14:05.188Z,0.92
2017-01-19T05:14:31.291Z,0.88
2017-01-19T05:14:57.388Z,0.78
2017-01-19T05:15:23.472Z,0.87
2017-01-19T05:15:49.584Z,0.78
2017-01-19T05:16:15.680Z,0.77
2017-01-19T05:16:41.781Z,0.8
2017-01-19T05:17:07.873Z,0.88
2017-01-19T05:17:33.969Z,0.84
2017-01-19T05:18:00.076Z,0.8
2017-01-19T05:18:26.169Z,0.84
2017-01-19T05:18:52.259Z,0.8
2017-01-19T05:19:18.369Z,0.83
2017-01-19T05:19:44.466Z,0.8
2017-01-19T05:20:10.555Z,0.8
2017-01-19T05:20:36.658Z,0.8
2017-01-19T05:21:02.762Z,0.73
2017-01-19T05:21:28.844Z,0.8
2017-01-19T05:21:54.946Z,0.83
2017-01-19T05:22:21.043Z,0.81
2017-01-19T05:22:47.150Z,0.8
2017-01-19T05:23:13.244Z,0.87
2017-01-19T05:23:39.337Z,0.88
2017-01-19T05:24:05.475Z,0.8
2017-01-19T05:24:31.574Z,0.83
2017-01-19T05:24:57.671Z,0.84
2017-01-19T05:25:23.776Z,0.74
2017-01-19T05:25:49.876Z,0.94
2017-01-19T05:26:15.963Z,0.94
2017-01-19T05:26:42.062Z,0.96
2017-01-19T05:27:08.173Z,1.04
2017-01-19T05:27:34.262Z,0.99
2017-01-19T05:28:00.362Z,0.96
2017-01-19T05:28:26.452Z,0.99
2017-01-19T05:28:52.552Z,1.02
2017-01-19T05:29:18.656Z,1.04
2017-01-19T05:29:44.743Z,0.96
2017-01-19T05:30:10.842Z,1.01
2017-01-19T05:30:36.950Z,0.96
2017-01-19T05:31:03.042Z,1.02
2017-01-19T05:31:29.144Z,0.94
2017-01-19T05:31:55.244Z,1.05
2017-01-19T05:32:21.337Z,1.04
2017-01-19T05:32:47.422Z,1.05
2017-01-19T05:33:13.538Z,1.01
2017-01-19T05:33:39.635Z,0.99
2017-01-19T05:34:05.724Z,1.12
2017-01-19T05:34:31.831Z,1.13
2017-01-19T05:34:57.929Z,1.05
2017-01-19T05:35:24.011Z,1.06
2017-01-19T05:35:50.119Z,1.06
2017-01-19T05:36:16.218Z,1.13
2017-01-19T05:36:42.309Z,1.17
2017-01-19T05:37:08.409Z,0.99
2017-01-19T05:37:34.521Z,1.05
2017-01-19T05:38:00.604Z,0.98
2017-01-19T05:38:26.700Z,1.04
2017-01-19T05:38:52.798Z,1.12
2017-01-19T05:39:18.932Z,1.02
2017-01-19T05:39:45.033Z,1.01
2017-01-19T05:40:11.118Z,0.95
2017-01-19T05:40:37.224Z,1.12
2017-01-19T05:41:03.329Z,1.05
2017-01-19T05:41:29.414Z,1.16
2017-01-19T05:41:55.513Z,1.06
2017-01-19T05:42:21.612Z,1.02
2017-01-19T05:42:47.706Z,0.99
2017-01-19T05:43:13.794Z,1.05
2017-01-19T05:43:39.906Z,1.1
2017-01-19T05:44:06.001Z,1.13
2017-01-19T05:44:32.104Z,1.12
2017-01-19T05:44:58.196Z,1.13
2017-01-19T05:45:24.313Z,1.19
2017-01-19T05:45:50.423Z,1.08
2017-01-19T05:46:16.514Z,1.08
2017-01-19T05:46:42.601Z,0.98
2017-01-19T05:47:08.719Z,1.01
2017-01-19T05:47:34.803Z,1.02
2017-01-19T05:48:00.896Z,1.04
2017-01-19T05:48:27.002Z,0.92
2017-01-19T05:48:53.103Z,0.92
2017-01-19T05:49:19.190Z,0.94